createdAt,value
2018-05-16T00:00:53.885Z,93686.52
2018-05-16T00:03:21.996Z,93682.72
2018-05-16T00:05:50.328Z,93685.41
2018-05-16T00:08:18.030Z,93680.35
2018-05-16T00:10:45.664Z,93681.15
2018-05-16T00:13:13.442Z,93682.42
2018-05-16T00:15:41.100Z,93686.28
2018-05-16T00:18:09.292Z,93689.05
2018-05-16T00:20:36.952Z,93686.62
2018-05-16T00:23:04.744Z,93690.30
2018-05-16T00:25:32.394Z,93694.58
2018-05-16T00:28:00.550Z,93687.41
2018-05-16T00:30:28.332Z,93691.64
2018-05-16T00:32:56.001Z,93692.83
2018-05-16T00:35:23.742Z,93690.91
2018-05-16T00:37:51.540Z,93691.25
2018-05-16T00:40:19.410Z,93691.02
2018-05-16T00:42:47.016Z,93685.72
2018-05-16T00:45:14.642Z,93689.39
2018-05-16T00:47:42.390Z,93687.08
2018-05-16T00:50:10.044Z,93691.70
2018-05-16T00:52:37.684Z,93695.88
2018-05-16T00:55:05.290Z,93689.95
2018-05-16T00:57:33.148Z,93687.30
2018-05-16T01:00:00.761Z,93692.77
2018-05-16T01:02:28.378Z,93686.91
2018-05-16T01:04:56.216Z,93685.55
2018-05-16T01:07:24.096Z,93688.94
2018-05-16T01:09:51.891Z,93685.72
2018-05-16T01:12:20.427Z,93682.00
2018-05-16T01:14:48.993Z,93687.36
2018-05-16T01:17:16.760Z,93684.81
2018-05-16T01:19:45.362Z,93675.05
2018-05-16T01:22:13.459Z,93677.59
2018-05-16T01:24:41.795Z,93681.09
2018-05-16T01:27:09.944Z,93675.11
2018-05-16T01:29:37.614Z,93675.45
2018-05-16T01:32:05.321Z,93673.13
2018-05-16T01:34:34.128Z,93685.55
2018-05-16T01:37:02.026Z,93677.98
2018-05-16T01:39:29.938Z,93679.17
2018-05-16T01:41:57.737Z,93674.06
2018-05-16T01:44:26.102Z,93676.91
2018-05-16T01:46:53.949Z,93677.37
2018-05-16T01:49:21.630Z,93674.45
2018-05-16T01:51:49.303Z,93674.15
2018-05-16T01:54:16.931Z,93677.65
2018-05-16T01:56:44.667Z,93677.67
2018-05-16T01:59:12.308Z,93671.18
2018-05-16T02:01:39.905Z,93667.32
2018-05-16T02:04:07.569Z,93671.95
2018-05-16T02:06:35.342Z,93672.66
2018-05-16T02:09:03.122Z,93673.89
2018-05-16T02:11:31.004Z,93675.87
2018-05-16T02:13:58.655Z,93670.34
2018-05-16T02:16:26.326Z,93671.47
2018-05-16T02:18:55.844Z,93669.52
2018-05-16T02:21:23.785Z,93667.46
2018-05-16T02:23:51.943Z,93671.61
2018-05-16T02:26:19.728Z,93670.03
2018-05-16T02:28:47.393Z,93668.22
2018-05-16T02:31:15.036Z,93666.95
2018-05-16T02:33:43.185Z,93663.45
2018-05-16T02:36:11.498Z,93670.28
2018-05-16T02:38:39.512Z,93662.77
2018-05-16T02:41:07.141Z,93667.13
2018-05-16T02:43:35.087Z,93665.38
2018-05-16T02:46:02.706Z,93661.93
2018-05-16T02:48:30.446Z,93659.95
2018-05-16T02:50:58.110Z,93663.91
2018-05-16T02:53:25.979Z,93657.42
2018-05-16T02:55:53.676Z,93660.88
2018-05-16T02:58:21.307Z,93662.78
2018-05-16T03:00:48.910Z,93659.08
2018-05-16T03:03:16.780Z,93663.94
2018-05-16T03:05:44.478Z,93660.32
2018-05-16T03:08:13.175Z,93659.48
2018-05-16T03:10:40.806Z,93661.90
2018-05-16T03:13:08.595Z,93666.81
2018-05-16T03:15:36.475Z,93671.33
2018-05-16T03:18:04.225Z,93669.58
2018-05-16T03:20:32.097Z,93664.78
2018-05-16T03:22:59.965Z,93664.72
2018-05-16T03:25:27.563Z,93665.00
2018-05-16T03:27:55.531Z,93664.05
2018-05-16T03:30:23.969Z,93666.25
2018-05-16T03:32:51.689Z,93669.69
2018-05-16T03:35:19.352Z,93668.84
2018-05-16T03:37:47.073Z,93662.52
2018-05-16T03:40:14.693Z,93665.71
2018-05-16T03:42:42.323Z,93667.73
2018-05-16T03:45:10.288Z,93664.52
2018-05-16T03:47:37.890Z,93667.17
2018-05-16T03:50:06.175Z,93671.06
2018-05-16T03:52:33.762Z,93674.17
2018-05-16T03:55:01.525Z,93672.65
2018-05-16T03:57:50.006Z,93676.09
2018-05-16T04:00:29.619Z,93674.63
2018-05-16T04:03:09.312Z,93675.58
2018-05-16T04:05:36.898Z,93668.98
2018-05-16T04:08:04.555Z,93675.97
2018-05-16T04:10:32.455Z,93680.55
2018-05-16T04:13:00.257Z,93679.75
2018-05-16T04:15:27.971Z,93684.05
2018-05-16T04:17:55.663Z,93680.16
2018-05-16T04:20:23.285Z,93684.05
2018-05-16T04:22:50.925Z,93681.63
2018-05-16T04:25:18.605Z,93677.98
2018-05-16T04:27:46.411Z,93677.70
2018-05-16T04:30:14.368Z,93678.44
2018-05-16T04:32:42.312Z,93675.00
2018-05-16T04:35:10.428Z,93679.17
2018-05-16T04:37:39.601Z,93683.80
2018-05-16T04:40:07.262Z,93681.54
2018-05-16T04:42:34.936Z,93686.08
2018-05-16T04:45:02.599Z,93678.24
2018-05-16T04:47:30.907Z,93682.95
2018-05-16T04:49:58.565Z,93684.77
2018-05-16T04:52:26.223Z,93686.23
2018-05-16T04:54:54.057Z,93686.73
2018-05-16T04:57:22.624Z,93683.33
2018-05-16T04:59:50.616Z,93690.06
2018-05-16T05:02:18.444Z,93691.51
2018-05-16T05:04:46.150Z,93689.73
2018-05-16T05:07:13.998Z,93687.81
2018-05-16T05:09:41.626Z,93680.75
2018-05-16T05:12:09.343Z,93685.83
2018-05-16T05:14:36.967Z,93686.40
2018-05-16T05:17:04.854Z,93676.06
2018-05-16T05:19:32.621Z,93681.82
2018-05-16T05:22:00.671Z,93680.31
2018-05-16T05:24:28.779Z,93683.53
2018-05-16T05:26:56.440Z,93679.47
2018-05-16T05:29:24.124Z,93679.84
2018-05-16T05:31:51.738Z,93685.89
2018-05-16T05:34:19.506Z,93694.30
2018-05-16T05:36:47.165Z,93689.30
2018-05-16T05:39:14.806Z,93682.11
2018-05-16T05:41:42.851Z,93688.99
2018-05-16T05:44:11.078Z,93686.86
2018-05-16T05:46:38.740Z,93686.80
2018-05-16T05:49:06.480Z,93686.02
2018-05-16T05:51:34.156Z,93679.58
2018-05-16T05:54:02.047Z,93685.77
2018-05-16T05:56:29.686Z,93686.00
2018-05-16T05:58:57.342Z,93678.79
2018-05-16T06:01:25.050Z,93680.92
2018-05-16T06:03:53.293Z,93679.45
2018-05-16T06:06:21.163Z,93683.52
2018-05-16T06:08:48.973Z,93687.36
2018-05-16T06:11:16.647Z,93678.42
2018-05-16T06:13:44.380Z,93677.00
2018-05-16T06:16:12.026Z,93680.90
2018-05-16T06:18:39.958Z,93682.34
2018-05-16T06:21:07.761Z,93672.05
2018-05-16T06:23:35.625Z,93668.34
2018-05-16T06:26:03.300Z,93672.45
2018-05-16T06:28:31.113Z,93672.61
2018-05-16T06:30:58.932Z,93681.52
2018-05-16T06:33:27.726Z,93681.09
2018-05-16T06:35:56.674Z,93676.33
2018-05-16T06:38:24.501Z,93684.41
2018-05-16T06:40:52.498Z,93672.06
2018-05-16T06:43:20.204Z,93674.31
2018-05-16T06:45:47.920Z,93677.56
2018-05-16T06:48:15.644Z,93674.49
2018-05-16T06:50:43.404Z,93672.19
2018-05-16T06:53:11.281Z,93685.59
2018-05-16T06:55:39.566Z,93683.53
2018-05-16T06:58:07.198Z,93680.26
2018-05-16T07:00:35.074Z,93682.52
2018-05-16T07:03:03.567Z,93687.31
2018-05-16T07:05:31.211Z,93686.36
2018-05-16T07:07:59.599Z,93685.75
2018-05-16T07:10:27.659Z,93685.66
2018-05-16T07:12:55.348Z,93685.47
2018-05-16T07:15:23.016Z,93684.59
2018-05-16T07:17:50.666Z,93686.39
2018-05-16T07:20:18.335Z,93689.86
2018-05-16T07:22:46.029Z,93691.42
2018-05-16T07:25:13.615Z,93700.31
2018-05-16T07:27:41.324Z,93701.98
2018-05-16T07:30:09.187Z,93695.36
2018-05-16T07:32:36.846Z,93699.34
2018-05-16T07:35:04.476Z,93703.69
2018-05-16T07:37:32.145Z,93705.66
2018-05-16T07:40:00.451Z,93707.74
2018-05-16T07:42:28.303Z,93702.44
2018-05-16T07:44:55.983Z,93701.74
2018-05-16T07:47:23.642Z,93704.23
2018-05-16T07:49:51.396Z,93703.84
2018-05-16T07:52:19.053Z,93707.95
2018-05-16T07:54:46.663Z,93705.92
2018-05-16T07:57:14.462Z,93710.39
2018-05-16T07:59:42.072Z,93710.18
2018-05-16T08:02:09.908Z,93708.36
2018-05-16T08:04:37.781Z,93704.15
2018-05-16T08:07:07.295Z,93706.88
2018-05-16T08:09:35.180Z,93713.87
2018-05-16T08:12:02.933Z,93714.70
2018-05-16T08:14:31.153Z,93714.38
2018-05-16T08:16:59.132Z,93713.87
2018-05-16T08:19:26.833Z,93722.98
2018-05-16T08:21:55.322Z,93710.08
2018-05-16T08:24:23.186Z,93717.55
2018-05-16T08:26:51.053Z,93720.22
2018-05-16T08:29:18.861Z,93719.83
2018-05-16T08:31:46.476Z,93722.53
2018-05-16T08:34:14.122Z,93725.22
2018-05-16T08:36:41.866Z,93729.76
2018-05-16T08:39:09.776Z,93729.52
2018-05-16T08:41:37.364Z,93729.33
2018-05-16T08:44:05.442Z,93730.40
2018-05-16T08:46:33.093Z,93737.14
2018-05-16T08:49:00.701Z,93737.78
2018-05-16T08:51:28.393Z,93738.77
2018-05-16T08:53:56.385Z,93742.86
2018-05-16T08:56:24.124Z,93746.09
2018-05-16T08:58:51.789Z,93751.92
2018-05-16T09:01:19.616Z,93744.53
2018-05-16T09:03:48.122Z,93750.36
2018-05-16T09:06:15.766Z,93753.95
2018-05-16T09:08:43.382Z,93755.67
2018-05-16T09:11:11.426Z,93752.13
2018-05-16T09:13:39.294Z,93756.63
2018-05-16T09:16:07.149Z,93756.44
2018-05-16T09:18:36.246Z,93752.58
2018-05-16T09:21:04.029Z,93753.02
2018-05-16T09:23:33.014Z,93753.87
2018-05-16T09:26:00.675Z,93765.28
2018-05-16T09:28:29.795Z,93760.63
2018-05-16T09:30:58.185Z,93762.38
2018-05-16T09:33:26.107Z,93763.68
2018-05-16T09:35:53.880Z,93764.77
2018-05-16T09:38:22.188Z,93761.26
2018-05-16T09:40:50.743Z,93768.63
2018-05-16T09:43:19.571Z,93767.95
2018-05-16T09:45:47.431Z,93770.52
2018-05-16T09:48:16.187Z,93769.55
2018-05-16T09:50:44.872Z,93773.03
2018-05-16T09:53:12.475Z,93772.16
2018-05-16T09:55:40.110Z,93773.73
2018-05-16T09:58:07.874Z,93775.62
2018-05-16T10:00:35.721Z,93773.87
2018-05-16T10:03:03.389Z,93775.62
2018-05-16T10:05:31.276Z,93781.52
2018-05-16T10:07:59.342Z,93780.30
2018-05-16T10:10:27.015Z,93773.05
2018-05-16T10:12:54.733Z,93770.91
2018-05-16T10:15:22.353Z,93770.89
2018-05-16T10:17:50.012Z,93772.16
2018-05-16T10:20:17.710Z,93768.65
2018-05-16T10:22:45.318Z,93774.68
2018-05-16T10:25:12.980Z,93774.51
2018-05-16T10:27:40.670Z,93783.00
2018-05-16T10:30:08.275Z,93780.56
2018-05-16T10:32:35.934Z,93780.55
2018-05-16T10:35:03.966Z,93773.80
2018-05-16T10:37:31.635Z,93777.42
2018-05-16T10:39:59.259Z,93778.70
2018-05-16T10:42:26.956Z,93779.64
2018-05-16T10:44:54.603Z,93776.39
2018-05-16T10:47:22.383Z,93778.30
2018-05-16T10:49:50.435Z,93780.38
2018-05-16T10:52:18.240Z,93769.76
2018-05-16T10:54:45.958Z,93770.12
2018-05-16T10:57:13.584Z,93771.78
2018-05-16T10:59:41.270Z,93770.56
2018-05-16T11:02:08.983Z,93769.32
2018-05-16T11:04:37.446Z,93758.52
2018-05-16T11:07:05.972Z,93759.62
2018-05-16T11:09:33.624Z,93762.03
2018-05-16T11:12:01.318Z,93749.91
2018-05-16T11:14:28.958Z,93748.15
2018-05-16T11:16:56.600Z,93747.42
2018-05-16T11:19:24.236Z,93745.48
2018-05-16T11:21:51.866Z,93742.37
2018-05-16T11:24:19.728Z,93738.64
2018-05-16T11:26:47.404Z,93744.84
2018-05-16T11:29:15.446Z,93740.14
2018-05-16T11:31:43.119Z,93743.64
2018-05-16T11:34:10.733Z,93742.75
2018-05-16T11:36:39.183Z,93734.52
2018-05-16T11:39:07.027Z,93733.17
2018-05-16T11:41:34.692Z,93734.02
2018-05-16T11:44:02.634Z,93731.34
2018-05-16T11:46:31.404Z,93725.72
2018-05-16T11:48:59.522Z,93726.78
2018-05-16T11:51:27.266Z,93726.49
2018-05-16T11:53:54.939Z,93727.87
2018-05-16T11:56:22.654Z,93731.53
2018-05-16T11:58:50.388Z,93718.53
2018-05-16T12:01:18.025Z,93718.30
2018-05-16T12:03:46.917Z,93719.41
2018-05-16T12:06:14.626Z,93716.66
2018-05-16T12:08:42.287Z,93723.27
2018-05-16T12:11:09.991Z,93714.77
2018-05-16T12:13:37.625Z,93717.29
2018-05-16T12:16:05.385Z,93712.77
2018-05-16T12:18:33.039Z,93707.52
2018-05-16T12:21:04.228Z,93700.37
2018-05-16T12:23:34.561Z,93707.53
2018-05-16T12:26:02.456Z,93710.81
2018-05-16T12:28:30.915Z,93708.05
2018-05-16T12:30:58.805Z,93705.64
2018-05-16T12:33:26.774Z,93708.05
2018-05-16T12:35:54.642Z,93695.06
2018-05-16T12:38:24.525Z,93693.15
2018-05-16T12:40:52.497Z,93696.75
2018-05-16T12:43:20.241Z,93691.95
2018-05-16T12:45:48.210Z,93693.70
2018-05-16T12:48:15.921Z,93694.53
2018-05-16T12:50:45.212Z,93697.47
2018-05-16T12:53:13.840Z,93698.16
2018-05-16T12:55:41.815Z,93696.28
2018-05-16T12:58:09.596Z,93698.52
2018-05-16T13:00:37.586Z,93688.81
2018-05-16T13:03:05.380Z,93695.58
2018-05-16T13:05:33.850Z,93695.81
2018-05-16T13:08:01.469Z,93689.66
2018-05-16T13:10:29.895Z,93692.09
2018-05-16T13:12:57.599Z,93692.59
2018-05-16T13:15:25.500Z,93687.19
2018-05-16T13:17:54.331Z,93688.50
2018-05-16T13:20:22.127Z,93694.66
2018-05-16T13:22:50.849Z,93689.81
2018-05-16T13:25:18.567Z,93690.34
2018-05-16T13:27:46.226Z,93697.05
2018-05-16T13:30:13.848Z,93697.80
2018-05-16T13:32:41.508Z,93702.55
2018-05-16T13:35:09.141Z,93697.66
2018-05-16T13:37:36.792Z,93690.47
2018-05-16T13:40:04.790Z,93695.08
2018-05-16T13:42:32.522Z,93691.23
2018-05-16T13:45:00.262Z,93694.52
2018-05-16T13:47:27.997Z,93694.05
2018-05-16T13:49:55.672Z,93700.67
2018-05-16T13:52:23.458Z,93704.52
2018-05-16T13:54:52.412Z,93702.64
2018-05-16T13:57:20.154Z,93714.80
2018-05-16T13:59:48.576Z,93710.25
2018-05-16T14:02:16.219Z,93712.77
2018-05-16T14:04:43.849Z,93716.72
2018-05-16T14:07:11.511Z,93727.53
2018-05-16T14:09:39.159Z,93728.25
2018-05-16T14:12:07.118Z,93725.02
2018-05-16T14:14:34.817Z,93719.48
2018-05-16T14:17:02.425Z,93714.50
2018-05-16T14:19:30.097Z,93718.83
2018-05-16T14:21:57.813Z,93716.02
2018-05-16T14:24:25.489Z,93720.65
2018-05-16T14:26:53.171Z,93714.63
2018-05-16T14:29:20.844Z,93717.92
2018-05-16T14:31:48.510Z,93717.77
2018-05-16T14:34:16.307Z,93717.12
2018-05-16T14:36:44.005Z,93720.39
2018-05-16T14:39:12.077Z,93722.22
2018-05-16T14:41:39.783Z,93718.72
2018-05-16T14:44:07.545Z,93721.43
2018-05-16T14:46:35.377Z,93724.83
2018-05-16T14:49:03.205Z,93728.30
2018-05-16T14:51:31.538Z,93725.28
2018-05-16T14:53:59.284Z,93722.98
2018-05-16T14:56:26.908Z,93729.31
2018-05-16T14:58:54.611Z,93724.20
2018-05-16T15:01:22.398Z,93722.05
2018-05-16T15:03:50.112Z,93726.63
2018-05-16T15:06:17.926Z,93719.87
2018-05-16T15:08:45.628Z,93720.70
2018-05-16T15:11:13.341Z,93718.20
2018-05-16T15:13:41.034Z,93716.55
2018-05-16T15:16:08.730Z,93712.23
2018-05-16T15:18:36.431Z,93721.92
2018-05-16T15:21:04.163Z,93712.50
2018-05-16T15:23:31.857Z,93718.41
2018-05-16T15:25:59.571Z,93721.50
2018-05-16T15:28:27.320Z,93707.88
2018-05-16T15:30:55.969Z,93713.54
2018-05-16T15:33:23.854Z,93705.56
2018-05-16T15:35:51.531Z,93705.42
2018-05-16T15:38:19.461Z,93706.81
2018-05-16T15:40:48.462Z,93703.15
2018-05-16T15:43:16.516Z,93702.03
2018-05-16T15:45:45.276Z,93700.80
2018-05-16T15:48:14.872Z,93712.57
2018-05-16T15:50:42.794Z,93707.22
2018-05-16T15:53:10.655Z,93699.73
2018-05-16T15:55:38.600Z,93696.60
2018-05-16T15:58:07.534Z,93697.91
2018-05-16T16:00:35.561Z,93696.98
2018-05-16T16:03:04.360Z,93704.55
2018-05-16T16:05:32.460Z,93699.16
2018-05-16T16:08:01.680Z,93696.17
2018-05-16T16:10:30.616Z,93702.83
2018-05-16T16:12:58.521Z,93705.69
2018-05-16T16:15:26.167Z,93705.81
2018-05-16T16:17:53.879Z,93715.78
2018-05-16T16:20:21.707Z,93707.75
2018-05-16T16:22:49.360Z,93709.69
2018-05-16T16:25:17.122Z,93710.53
2018-05-16T16:27:45.214Z,93710.84
2018-05-16T16:30:12.867Z,93711.55
2018-05-16T16:32:40.619Z,93717.24
2018-05-16T16:35:08.681Z,93721.83
2018-05-16T16:37:36.720Z,93721.58
2018-05-16T16:40:04.496Z,93724.18
2018-05-16T16:42:32.309Z,93724.73
2018-05-16T16:45:00.562Z,93724.89
2018-05-16T16:47:28.287Z,93726.41
2018-05-16T16:49:56.147Z,93723.16
2018-05-16T16:52:24.690Z,93723.74
2018-05-16T16:54:52.674Z,93719.48
2018-05-16T16:57:20.496Z,93726.96
2018-05-16T16:59:48.161Z,93728.00
2018-05-16T17:02:15.910Z,93728.78
2018-05-16T17:04:43.632Z,93727.66
2018-05-16T17:07:11.422Z,93743.31
2018-05-16T17:09:40.073Z,93738.31
2018-05-16T17:12:08.137Z,93740.93
2018-05-16T17:14:36.054Z,93741.95
2018-05-16T17:17:05.171Z,93738.88
2018-05-16T17:19:33.259Z,93743.94
2018-05-16T17:22:01.447Z,93742.84
2018-05-16T17:24:31.377Z,93742.53
2018-05-16T17:26:59.612Z,93743.37
2018-05-16T17:29:28.375Z,93749.80
2018-05-16T17:31:57.089Z,93752.35
2018-05-16T17:34:25.244Z,93756.81
2018-05-16T17:36:53.254Z,93751.05
2018-05-16T17:39:20.974Z,93760.34
2018-05-16T17:41:49.604Z,93753.07
2018-05-16T17:44:19.126Z,93762.33
2018-05-16T17:46:48.716Z,93757.74
2018-05-16T17:49:16.589Z,93760.03
2018-05-16T17:51:44.629Z,93760.65
2018-05-16T17:54:12.453Z,93764.09
2018-05-16T17:56:40.481Z,93766.28
2018-05-16T17:59:08.278Z,93759.88
2018-05-16T18:01:36.439Z,93768.53
2018-05-16T18:04:04.183Z,93769.31
2018-05-16T18:06:31.917Z,93764.02
2018-05-16T18:08:59.746Z,93773.23
2018-05-16T18:11:27.444Z,93771.33
2018-05-16T18:14:07.034Z,93779.34
2018-05-16T18:16:54.924Z,93777.64
2018-05-16T18:19:22.947Z,93779.55
2018-05-16T18:21:51.161Z,93786.50
2018-05-16T18:24:19.433Z,93789.23
2018-05-16T18:26:47.285Z,93789.69
2018-05-16T18:29:14.986Z,93788.86
2018-05-16T18:31:42.886Z,93790.35
2018-05-16T18:34:10.619Z,93793.08
2018-05-16T18:36:38.247Z,93783.18
2018-05-16T18:39:07.090Z,93795.81
2018-05-16T18:41:35.906Z,93793.32
2018-05-16T18:44:04.371Z,93799.53
2018-05-16T18:46:32.143Z,93805.02
2018-05-16T18:48:59.839Z,93804.73
2018-05-16T18:51:28.826Z,93809.05
2018-05-16T18:53:56.670Z,93813.17
2018-05-16T18:56:24.744Z,93821.19
2018-05-16T18:58:53.628Z,93817.16
2018-05-16T19:01:23.127Z,93822.85
2018-05-16T19:03:51.144Z,93820.52
2018-05-16T19:06:19.135Z,93822.53
2018-05-16T19:08:46.988Z,93832.81
2018-05-16T19:11:14.752Z,93830.09
2018-05-16T19:13:42.572Z,93832.92
2018-05-16T19:16:10.274Z,93832.88
2018-05-16T19:18:38.005Z,93837.98
2018-05-16T19:21:05.804Z,93848.41
2018-05-16T19:23:33.618Z,93843.86
2018-05-16T19:26:01.407Z,93847.84
2018-05-16T19:28:29.448Z,93847.61
2018-05-16T19:30:57.267Z,93848.88
2018-05-16T19:33:24.984Z,93844.12
2018-05-16T19:35:53.213Z,93850.80
2018-05-16T19:38:21.110Z,93850.91
2018-05-16T19:40:52.013Z,93859.02
2018-05-16T19:43:21.242Z,93858.03
2018-05-16T19:45:49.790Z,93857.94
2018-05-16T19:48:17.460Z,93859.01
2018-05-16T19:50:45.135Z,93863.02
2018-05-16T19:53:12.855Z,93868.70
2018-05-16T19:55:41.167Z,93861.59
2018-05-16T19:58:09.038Z,93873.97
2018-05-16T20:00:36.959Z,93867.17
2018-05-16T20:03:05.540Z,93878.61
2018-05-16T20:05:33.274Z,93874.38
2018-05-16T20:08:01.039Z,93872.02
2018-05-16T20:10:28.886Z,93869.74
2018-05-16T20:12:56.719Z,93868.72
2018-05-16T20:15:24.477Z,93870.94
2018-05-16T20:17:52.203Z,93874.11
2018-05-16T20:20:20.025Z,93867.59
2018-05-16T20:22:47.848Z,93865.30
2018-05-16T20:25:15.648Z,93872.81
2018-05-16T20:27:43.566Z,93876.63
2018-05-16T20:30:11.236Z,93881.06
2018-05-16T20:32:38.899Z,93883.84
2018-05-16T20:35:07.373Z,93883.96
2018-05-16T20:37:35.541Z,93888.20
2018-05-16T20:40:03.610Z,93891.43
2018-05-16T20:42:31.357Z,93891.17
2018-05-16T20:44:59.130Z,93894.34
2018-05-16T20:47:26.992Z,93894.96
2018-05-16T20:49:54.788Z,93903.23
2018-05-16T20:52:22.472Z,93895.87
2018-05-16T20:54:50.171Z,93899.56
2018-05-16T20:57:18.618Z,93902.72
2018-05-16T20:59:46.277Z,93905.39
2018-05-16T21:02:13.956Z,93904.34
2018-05-16T21:04:41.636Z,93918.45
2018-05-16T21:07:09.452Z,93908.57
2018-05-16T21:09:38.229Z,93910.20
2018-05-16T21:12:06.014Z,93910.55
2018-05-16T21:14:33.677Z,93921.63
2018-05-16T21:17:01.512Z,93918.30
2018-05-16T21:19:29.153Z,93918.28
2018-05-16T21:21:56.791Z,93918.19
2018-05-16T21:24:24.488Z,93920.48
2018-05-16T21:26:52.177Z,93919.69
2018-05-16T21:29:19.817Z,93919.29
2018-05-16T21:31:47.574Z,93918.48
2018-05-16T21:34:15.248Z,93914.05
2018-05-16T21:36:42.960Z,93914.29
2018-05-16T21:39:10.611Z,93918.41
2018-05-16T21:41:38.248Z,93920.88
2018-05-16T21:44:05.966Z,93922.08
2018-05-16T21:46:33.640Z,93928.17
2018-05-16T21:49:01.259Z,93924.10
2018-05-16T21:51:28.887Z,93923.66
2018-05-16T21:53:56.573Z,93925.86
2018-05-16T21:56:24.510Z,93927.00
2018-05-16T21:58:52.221Z,93924.23
2018-05-16T22:01:19.859Z,93924.91
2018-05-16T22:03:47.566Z,93921.41
2018-05-16T22:06:15.207Z,93922.13
2018-05-16T22:08:42.909Z,93922.64
2018-05-16T22:11:10.590Z,93919.94
2018-05-16T22:13:38.217Z,93917.78
2018-05-16T22:16:05.930Z,93922.36
2018-05-16T22:18:33.562Z,93928.75
2018-05-16T22:21:01.218Z,93920.44
2018-05-16T22:23:28.845Z,93923.03
2018-05-16T22:25:56.572Z,93922.19
2018-05-16T22:28:24.219Z,93924.61
2018-05-16T22:30:57.542Z,93914.83
2018-05-16T22:33:30.770Z,93917.33
2018-05-16T22:36:03.975Z,93922.98
2018-05-16T22:38:37.216Z,93926.83
2018-05-16T22:41:10.437Z,93919.13
2018-05-16T22:43:43.649Z,93917.37
2018-05-16T22:46:11.362Z,93920.27
2018-05-16T22:48:39.297Z,93921.23
2018-05-16T22:51:06.958Z,93916.64
2018-05-16T22:53:34.626Z,93912.58
2018-05-16T22:56:02.279Z,93914.59
2018-05-16T22:58:30.045Z,93918.27
2018-05-16T23:00:57.756Z,93925.78
2018-05-16T23:03:25.452Z,93926.37
2018-05-16T23:05:53.770Z,93922.25
2018-05-16T23:08:21.410Z,93923.47
2018-05-16T23:10:49.148Z,93914.70
2018-05-16T23:13:16.881Z,93914.88
2018-05-16T23:15:44.539Z,93916.80
2018-05-16T23:18:12.336Z,93917.36
2018-05-16T23:20:39.912Z,93913.31
2018-05-16T23:23:07.684Z,93920.52
2018-05-16T23:25:35.367Z,93910.54
2018-05-16T23:28:03.000Z,93912.55
2018-05-16T23:30:30.741Z,93914.48
2018-05-16T23:32:58.427Z,93914.93
2018-05-16T23:35:26.093Z,93910.06
2018-05-16T23:37:53.819Z,93919.88
2018-05-16T23:40:21.497Z,93914.05
2018-05-16T23:42:49.093Z,93917.98
2018-05-16T23:45:16.686Z,93915.63
2018-05-16T23:47:44.381Z,93919.31
2018-05-16T23:50:12.020Z,93914.84
2018-05-16T23:52:39.859Z,93917.62
2018-05-16T23:55:07.514Z,93915.38
2018-05-16T23:57:35.235Z,93921.88
